Muir Army Air Field (Fort Indiantown Gap) Airport
KMUI : now visible

Airfield :











YOU CAN JOIN US ON...

 
LOGIN :

Register | Disclaimer

   EN    FR    IT 

 









Legend :    VFR   Marginal VFR   IFR   Intensive IFR   Very Intensive IFR
Visi :
Ceiling :
>= 8 km
>= 3000ft
5 to 8 km
1000 to 3000 ft
1500m to 5 km
500 to 1000 ft
800 to 1500m
200 to 500 ft
< 800m
< 200 ft
Symbols :   Thunderstorms  Fog  Heavy snow  Heavy precipitations  Wind > 20 kt






- Airport Elevation : 488 ft


KMUI - Muir Army Air Field (Fort Indiantown Gap)

CURRENT METAR :
  • 100456Z AUTO 25015G23KT 10SM FEW042 04/M02 A2947 RMK AO2 SLP984 P0001 T00401022 401500038

EXPIRED METARs :
  • 100356Z AUTO 26011G21KT 10SM BKN100 04/00 A2947 RMK AO2 PK WND 26034/0258 RAB0257E34 SLP983 P0000 T00421002
  • 100334Z AUTO 28012G22KT 10SM SCT019 SCT036 04/01 A2948 RMK AO2 RAB0257E34 SLP987
  • 100257Z AUTO 27013G23KT 10SM -RA FEW030 SCT039 BKN100 06/01 A2948 RMK AO2 RAB57 SLP987
  • 100256Z AUTO 25014G23KT 10SM FEW033 SCT042 SCT070 BKN095 06/01 A2948 RMK AO2 PK WND 27027/24 RAE0158 SLP987 P0001 60002 T00560006 51022

TAF AMD TAF KMUI
Valid from the 10 at 03:00 until the 11 at 01:00 UTC


100309Z 1003/1101 29015G25KT 9999 BKN050 OVC060 QNH2938INS
TEMPO 1004/1008 27030G45KT 9000 -SHRA BKN035 520003
BECMG 1014/1015 30025G35KT 9999 SCT045 OVC060 510002 QNH2948INS TX06/1003Z TN01/1011Z LAST NO AMDS AFT 1004 NEXT 1011



MET'MAP, your aeronautical weather chart ! - Copyright ORBIFLY December 2007 - Disclaimer

ORBIFLY MET'MAP TEAM :

Programming & Development : Alexandra Zaïnal
Concept & original design : Baudouin d'Aumeries
Assistance for programming : Marc-Olivier Méhu
Technical & hardware support : Manuel Goepfert

Contact : metmap@orbifly.com




SOURCES & CREDITS :

   NOAA       Earth
Advisory